createdAt,value
2022-11-29T00:01:35.653Z,70.36
2022-11-29T00:04:02.680Z,70.58
2022-11-29T00:06:33.987Z,71.04
2022-11-29T00:09:06.446Z,72.07
2022-11-29T00:11:55.888Z,72.71
2022-11-29T00:14:24.315Z,73.04
2022-11-29T00:16:59.178Z,72.50
2022-11-29T00:19:25.790Z,71.83
2022-11-29T00:21:52.297Z,72.26
2022-11-29T00:24:19.010Z,72.35
2022-11-29T00:26:45.637Z,72.37
2022-11-29T00:29:13.181Z,72.21
2022-11-29T00:31:41.035Z,72.44
2022-11-29T00:34:09.906Z,71.72
2022-11-29T00:36:36.844Z,71.67
2022-11-29T00:39:04.868Z,71.27
2022-11-29T00:41:31.984Z,71.05
2022-11-29T00:43:58.548Z,71.14
2022-11-29T00:46:25.334Z,71.42
2022-11-29T00:48:51.824Z,71.31
2022-11-29T00:51:18.313Z,71.06
2022-11-29T00:53:45.218Z,71.05
2022-11-29T00:56:12.244Z,70.74
2022-11-29T00:58:38.764Z,70.33
2022-11-29T01:01:06.140Z,70.44
2022-11-29T01:03:32.918Z,70.64
2022-11-29T01:06:09.703Z,71.45
2022-11-29T01:08:37.365Z,71.98
2022-11-29T01:11:18.794Z,72.04
2022-11-29T01:13:45.353Z,73.10
2022-11-29T01:16:15.195Z,72.77
2022-11-29T01:18:42.751Z,72.82
2022-11-29T01:21:14.143Z,71.92
2022-11-29T01:23:42.293Z,71.73
2022-11-29T01:26:27.107Z,71.80
2022-11-29T01:28:56.127Z,72.36
2022-11-29T01:31:29.644Z,72.51
2022-11-29T01:33:58.590Z,72.57
2022-11-29T01:36:26.144Z,71.81
2022-11-29T01:38:53.511Z,71.72
2022-11-29T01:41:24.554Z,71.24
2022-11-29T01:44:28.321Z,70.85
2022-11-29T01:46:56.619Z,70.94
2022-11-29T01:49:33.969Z,71.49
2022-11-29T01:52:14.060Z,71.39
2022-11-29T01:54:55.436Z,71.47
2022-11-29T01:57:22.651Z,72.21
2022-11-29T01:59:54.565Z,72.06
2022-11-29T02:02:35.569Z,71.61
2022-11-29T02:05:04.602Z,71.45
2022-11-29T02:07:31.872Z,71.10
2022-11-29T02:09:58.696Z,70.75
2022-11-29T02:13:05.049Z,70.78
2022-11-29T02:15:54.967Z,70.75
2022-11-29T02:19:03.153Z,71.54
2022-11-29T02:21:42.722Z,72.22
2022-11-29T02:24:33.035Z,72.57
2022-11-29T02:27:16.555Z,72.84
2022-11-29T02:30:10.954Z,72.12
2022-11-29T02:33:06.190Z,72.91
2022-11-29T02:36:00.242Z,72.79
2022-11-29T02:38:39.461Z,72.33
2022-11-29T02:41:43.162Z,71.49
2022-11-29T02:44:33.884Z,72.04
2022-11-29T02:47:25.064Z,72.37
2022-11-29T02:50:32.869Z,73.02
2022-11-29T02:53:21.454Z,73.27
2022-11-29T02:56:10.741Z,72.56
2022-11-29T02:58:52.757Z,72.79
2022-11-29T03:01:50.282Z,72.47
2022-11-29T03:04:32.746Z,72.39
2022-11-29T03:07:25.414Z,72.16
2022-11-29T03:10:43.271Z,72.00
2022-11-29T03:13:23.723Z,72.81
2022-11-29T03:16:23.952Z,73.11
2022-11-29T03:19:22.050Z,73.29
2022-11-29T03:22:10.296Z,72.79
2022-11-29T03:25:12.318Z,72.45
2022-11-29T03:27:50.542Z,72.61
2022-11-29T03:30:19.150Z,72.60
2022-11-29T03:33:02.995Z,72.84
2022-11-29T03:35:58.101Z,73.43
2022-11-29T03:38:46.974Z,73.40
2022-11-29T03:41:37.963Z,73.75
2022-11-29T03:44:17.771Z,74.41
2022-11-29T03:47:04.343Z,74.17
2022-11-29T03:49:54.514Z,73.50
2022-11-29T03:52:34.637Z,73.12
2022-11-29T03:55:30.865Z,73.16
2022-11-29T03:58:41.461Z,73.08
2022-11-29T04:01:54.052Z,72.48
2022-11-29T04:05:14.212Z,72.25
2022-11-29T04:08:20.080Z,72.49
2022-11-29T04:10:55.597Z,72.69
2022-11-29T04:14:05.765Z,72.83
2022-11-29T04:17:12.783Z,73.53
2022-11-29T04:20:13.887Z,74.05
2022-11-29T04:22:58.744Z,74.26
2022-11-29T04:26:21.012Z,73.94
2022-11-29T04:29:29.911Z,73.13
2022-11-29T04:32:44.010Z,72.45
2022-11-29T04:35:35.311Z,71.94
2022-11-29T04:38:31.898Z,71.84
2022-11-29T04:41:35.228Z,72.35
2022-11-29T04:44:19.282Z,72.50
2022-11-29T04:47:11.733Z,71.82
2022-11-29T04:50:11.525Z,71.83
2022-11-29T04:53:25.475Z,71.87
2022-11-29T04:56:23.580Z,71.59
2022-11-29T04:59:21.468Z,71.42
2022-11-29T05:02:23.668Z,71.79
2022-11-29T05:05:12.702Z,72.57
2022-11-29T05:08:35.956Z,72.58
2022-11-29T05:11:26.481Z,72.26
2022-11-29T05:14:27.332Z,72.23
2022-11-29T05:17:34.486Z,71.91
2022-11-29T05:20:38.796Z,71.87
2022-11-29T05:23:17.116Z,71.88
2022-11-29T05:26:18.813Z,72.00
2022-11-29T05:29:08.524Z,72.84
2022-11-29T05:32:13.902Z,72.95
2022-11-29T05:35:23.110Z,73.09
2022-11-29T05:37:54.735Z,72.98
2022-11-29T05:41:16.484Z,72.58
2022-11-29T05:44:11.231Z,72.23
2022-11-29T05:46:55.105Z,72.01
2022-11-29T05:49:41.134Z,71.70
2022-11-29T05:53:06.202Z,71.65
2022-11-29T05:56:18.153Z,71.73
2022-11-29T05:59:02.905Z,71.44
2022-11-29T06:01:52.026Z,71.29
2022-11-29T06:04:45.677Z,71.44
2022-11-29T06:07:23.988Z,71.70
2022-11-29T06:10:03.953Z,71.72
2022-11-29T06:12:35.813Z,72.03
2022-11-29T06:15:37.350Z,71.73
2022-11-29T06:18:25.210Z,72.18
2022-11-29T06:21:10.915Z,72.60
2022-11-29T06:24:35.965Z,72.58
2022-11-29T06:27:31.649Z,72.77
2022-11-29T06:30:09.209Z,72.55
2022-11-29T06:33:17.023Z,72.50
2022-11-29T06:36:21.662Z,72.66
2022-11-29T06:38:48.861Z,72.89
2022-11-29T06:41:22.350Z,72.63
2022-11-29T06:43:50.136Z,72.70
2022-11-29T06:46:45.551Z,72.54
2022-11-29T06:49:28.919Z,72.61
2022-11-29T06:52:10.599Z,72.37
2022-11-29T06:55:07.593Z,71.83
2022-11-29T06:57:42.627Z,71.93
2022-11-29T07:00:20.663Z,71.91
2022-11-29T07:03:55.621Z,72.62
2022-11-29T07:06:28.629Z,72.84
2022-11-29T07:09:20.124Z,72.49
2022-11-29T07:11:48.226Z,72.46
2022-11-29T07:14:15.141Z,72.14
2022-11-29T07:17:15.357Z,71.89
2022-11-29T07:20:01.982Z,71.68
2022-11-29T07:23:01.050Z,71.61
2022-11-29T07:26:10.583Z,71.48
2022-11-29T07:28:50.725Z,71.62
2022-11-29T07:31:47.059Z,71.47
2022-11-29T07:34:44.731Z,71.92
2022-11-29T07:37:23.418Z,72.14
2022-11-29T07:40:17.082Z,71.98
2022-11-29T07:43:08.384Z,71.90
2022-11-29T07:45:36.745Z,71.63
2022-11-29T07:48:04.522Z,71.59
2022-11-29T07:50:31.713Z,71.87
2022-11-29T07:52:59.878Z,72.80
2022-11-29T07:55:27.540Z,73.00
2022-11-29T07:57:54.089Z,72.12
2022-11-29T08:00:21.803Z,71.83
2022-11-29T08:02:50.092Z,71.74
2022-11-29T08:05:16.995Z,71.73
2022-11-29T08:07:43.632Z,71.68
2022-11-29T08:10:16.260Z,71.22
2022-11-29T08:12:46.164Z,70.94
2022-11-29T08:15:13.524Z,70.87
2022-11-29T08:17:40.541Z,71.18
2022-11-29T08:20:09.721Z,71.01
2022-11-29T08:22:36.300Z,70.83
2022-11-29T08:25:03.862Z,70.72
2022-11-29T08:27:31.076Z,71.14
2022-11-29T08:29:57.790Z,71.25
2022-11-29T08:32:24.633Z,70.71
2022-11-29T08:34:51.130Z,71.12
2022-11-29T08:37:17.654Z,71.09
2022-11-29T08:39:44.219Z,70.83
2022-11-29T08:42:10.997Z,71.04
2022-11-29T08:44:37.488Z,71.50
2022-11-29T08:47:22.765Z,71.17
2022-11-29T08:50:01.402Z,72.12
2022-11-29T08:52:52.432Z,72.27
2022-11-29T08:55:22.300Z,72.19
2022-11-29T08:57:51.759Z,71.92
2022-11-29T09:00:21.078Z,71.98
2022-11-29T09:02:48.588Z,71.98
2022-11-29T09:05:15.794Z,71.58
2022-11-29T09:07:42.907Z,71.70
2022-11-29T09:10:12.009Z,71.43
2022-11-29T09:12:41.446Z,71.64
2022-11-29T09:15:11.622Z,72.00
2022-11-29T09:17:38.092Z,72.19
2022-11-29T09:20:06.259Z,71.89
2022-11-29T09:22:32.816Z,71.99
2022-11-29T09:24:59.331Z,71.89
2022-11-29T09:27:25.817Z,71.65
2022-11-29T09:29:52.332Z,71.50
2022-11-29T09:32:18.819Z,71.07
2022-11-29T09:34:45.714Z,71.07
2022-11-29T09:37:12.501Z,71.24
2022-11-29T09:39:40.157Z,71.11
2022-11-29T09:42:34.789Z,70.67
2022-11-29T09:45:16.630Z,70.47
2022-11-29T09:48:15.511Z,70.68
2022-11-29T09:50:54.146Z,71.31
2022-11-29T09:53:45.807Z,70.69
2022-11-29T09:56:18.222Z,70.95
2022-11-29T09:59:01.569Z,71.28
2022-11-29T10:01:58.163Z,71.37
2022-11-29T10:04:36.192Z,71.18
2022-11-29T10:07:24.592Z,71.06
2022-11-29T10:10:02.100Z,70.46
2022-11-29T10:12:48.572Z,70.15
2022-11-29T10:15:22.753Z,70.02
2022-11-29T10:20:49.994Z,70.50
2022-11-29T10:23:45.874Z,70.22
2022-11-29T10:26:13.607Z,70.08
2022-11-29T10:28:45.016Z,70.06
2022-11-29T10:31:26.789Z,69.85
2022-11-29T10:34:01.680Z,70.07
2022-11-29T10:36:47.745Z,70.84
2022-11-29T10:39:39.814Z,70.77
2022-11-29T10:42:40.667Z,70.83
2022-11-29T10:45:23.323Z,70.70
2022-11-29T10:47:52.563Z,70.26
2022-11-29T10:50:25.362Z,70.54
2022-11-29T10:53:00.015Z,70.22
2022-11-29T10:55:34.615Z,69.77
2022-11-29T10:58:08.288Z,69.73
2022-11-29T11:01:06.744Z,69.06
2022-11-29T11:03:38.140Z,69.23
2022-11-29T11:06:44.088Z,68.31
2022-11-29T11:09:16.594Z,69.14
2022-11-29T11:11:53.198Z,68.78
2022-11-29T11:14:25.803Z,69.32
2022-11-29T11:16:52.606Z,69.17
2022-11-29T11:19:28.241Z,68.91
2022-11-29T11:21:58.440Z,68.91
2022-11-29T11:24:29.980Z,68.56
2022-11-29T11:26:58.273Z,68.67
2022-11-29T11:29:39.190Z,68.62
2022-11-29T11:32:17.529Z,68.76
2022-11-29T11:35:01.329Z,68.11
2022-11-29T11:37:36.652Z,68.60
2022-11-29T11:40:29.589Z,69.00
2022-11-29T11:43:02.397Z,68.05
2022-11-29T11:45:35.519Z,68.39
2022-11-29T11:48:15.643Z,68.54
2022-11-29T11:51:02.850Z,67.74
2022-11-29T11:53:37.551Z,67.51
2022-11-29T11:56:14.224Z,67.79
2022-11-29T11:58:54.542Z,66.60
2022-11-29T12:01:38.517Z,67.56
2022-11-29T12:04:23.078Z,67.64
2022-11-29T12:06:56.693Z,67.74
2022-11-29T12:09:49.233Z,66.25
2022-11-29T12:12:27.449Z,65.34
2022-11-29T12:15:08.410Z,67.41
2022-11-29T12:18:06.688Z,66.52
2022-11-29T12:21:00.296Z,66.99
2022-11-29T12:23:49.489Z,67.30
2022-11-29T12:29:31.757Z,67.10
2022-11-29T12:32:21.445Z,66.17
2022-11-29T12:35:18.795Z,66.79
2022-11-29T12:37:58.040Z,66.70
2022-11-29T12:40:54.053Z,68.01
2022-11-29T12:43:47.181Z,68.01
2022-11-29T12:46:25.908Z,68.64
2022-11-29T12:49:27.702Z,68.79
2022-11-29T12:52:15.111Z,69.24
2022-11-29T12:54:57.662Z,69.35
2022-11-29T12:57:47.037Z,69.01
2022-11-29T13:00:18.193Z,69.05
2022-11-29T13:03:03.516Z,68.54
2022-11-29T13:05:56.556Z,67.98
2022-11-29T13:09:00.325Z,68.15
2022-11-29T13:11:43.244Z,66.96
2022-11-29T13:14:55.684Z,66.46
2022-11-29T13:17:47.328Z,66.80
2022-11-29T13:20:40.194Z,67.54
2022-11-29T13:23:45.463Z,66.48
2022-11-29T13:26:14.844Z,66.97
2022-11-29T13:28:46.272Z,66.60
2022-11-29T13:31:19.712Z,65.75
2022-11-29T13:34:03.329Z,65.90
2022-11-29T13:37:04.723Z,65.48
2022-11-29T13:40:35.975Z,65.43
2022-11-29T13:43:45.845Z,65.04
2022-11-29T13:46:36.251Z,64.46
2022-11-29T13:49:02.861Z,65.25
2022-11-29T13:51:35.193Z,65.03
2022-11-29T13:54:06.669Z,64.86
2022-11-29T13:56:45.931Z,65.11
2022-11-29T13:59:32.431Z,64.59
2022-11-29T14:01:59.603Z,64.66
2022-11-29T14:04:45.771Z,64.87
2022-11-29T14:07:19.487Z,65.10
2022-11-29T14:10:06.933Z,64.49
2022-11-29T14:12:41.369Z,64.68
2022-11-29T14:15:29.229Z,63.11
2022-11-29T14:18:02.456Z,64.16
2022-11-29T14:20:28.841Z,64.80
2022-11-29T14:23:04.375Z,64.75
2022-11-29T14:25:55.461Z,64.55
2022-11-29T14:28:21.842Z,64.33
2022-11-29T14:30:58.203Z,63.98
2022-11-29T14:33:49.765Z,63.83
2022-11-29T14:36:19.021Z,63.89
2022-11-29T14:39:19.867Z,62.49
2022-11-29T14:42:06.262Z,64.15
2022-11-29T14:44:43.098Z,64.27
2022-11-29T14:47:24.299Z,63.59
2022-11-29T14:49:54.318Z,63.84
2022-11-29T14:52:50.254Z,63.21
2022-11-29T14:55:16.621Z,63.93
2022-11-29T14:58:17.901Z,63.86
2022-11-29T15:00:47.079Z,64.55
2022-11-29T15:03:19.794Z,63.97
2022-11-29T15:05:59.417Z,63.96
2022-11-29T15:08:51.799Z,63.94
2022-11-29T15:11:40.432Z,64.04
2022-11-29T15:14:20.443Z,64.14
2022-11-29T15:17:32.061Z,64.41
2022-11-29T15:20:17.838Z,64.93
2022-11-29T15:22:54.018Z,65.14
2022-11-29T15:25:32.992Z,65.13
2022-11-29T15:28:06.291Z,65.63
2022-11-29T15:30:41.433Z,65.68
2022-11-29T15:33:24.596Z,65.36
2022-11-29T15:35:55.540Z,65.79
2022-11-29T15:38:24.261Z,66.73
2022-11-29T15:40:53.751Z,67.37
2022-11-29T15:43:37.283Z,67.20
2022-11-29T15:46:03.956Z,66.70
2022-11-29T15:48:33.605Z,66.40
2022-11-29T15:51:24.815Z,66.39
2022-11-29T15:54:13.797Z,66.67
2022-11-29T15:56:54.936Z,66.42
2022-11-29T15:59:39.079Z,66.51
2022-11-29T16:02:26.332Z,66.12
2022-11-29T16:04:59.656Z,66.06
2022-11-29T16:07:32.184Z,66.34
2022-11-29T16:10:07.841Z,67.20
2022-11-29T16:12:34.324Z,67.28
2022-11-29T16:15:01.646Z,67.11
2022-11-29T16:17:33.143Z,67.27
2022-11-29T16:20:14.614Z,67.21
2022-11-29T16:22:41.108Z,67.41
2022-11-29T16:25:18.890Z,67.75
2022-11-29T16:27:46.803Z,68.51
2022-11-29T16:30:26.502Z,69.28
2022-11-29T16:33:00.359Z,69.23
2022-11-29T16:35:33.051Z,68.74
2022-11-29T16:38:03.614Z,68.83
2022-11-29T16:40:33.221Z,68.32
2022-11-29T16:43:44.196Z,67.87
2022-11-29T16:46:22.976Z,68.30
2022-11-29T16:48:51.008Z,68.38
2022-11-29T16:51:32.139Z,67.92
2022-11-29T16:54:19.996Z,67.67
2022-11-29T16:56:46.657Z,68.67
2022-11-29T16:59:25.003Z,68.74
2022-11-29T17:01:54.819Z,69.40
2022-11-29T17:04:23.661Z,69.51
2022-11-29T17:06:52.629Z,69.44
2022-11-29T17:09:32.484Z,68.91
2022-11-29T17:12:01.781Z,68.82
2022-11-29T17:14:30.142Z,69.10
2022-11-29T17:16:56.737Z,69.00
2022-11-29T17:19:23.922Z,68.76
2022-11-29T17:21:52.614Z,68.52
2022-11-29T17:24:21.818Z,68.31
2022-11-29T17:26:48.872Z,68.59
2022-11-29T17:29:17.504Z,68.25
2022-11-29T17:31:46.240Z,68.81
2022-11-29T17:34:13.167Z,69.10
2022-11-29T17:36:40.426Z,68.99
2022-11-29T17:39:07.182Z,68.69
2022-11-29T17:41:34.308Z,68.50
2022-11-29T17:44:01.091Z,67.68
2022-11-29T17:46:34.784Z,67.62
2022-11-29T17:49:05.374Z,67.90
2022-11-29T17:54:22.210Z,68.11
2022-11-29T17:56:49.676Z,68.29
2022-11-29T17:59:16.547Z,68.09
2022-11-29T18:01:43.125Z,68.57
2022-11-29T18:04:09.653Z,68.13
2022-11-29T18:06:39.934Z,68.13
2022-11-29T18:09:09.321Z,68.00
2022-11-29T18:11:48.057Z,67.99
2022-11-29T18:14:23.434Z,68.15
2022-11-29T18:16:50.663Z,68.41
2022-11-29T18:19:20.851Z,69.29
2022-11-29T18:21:48.111Z,69.26
2022-11-29T18:24:15.052Z,68.94
2022-11-29T18:26:42.474Z,68.60
2022-11-29T18:29:09.627Z,68.33
2022-11-29T18:31:41.667Z,68.08
2022-11-29T18:34:10.846Z,68.13
2022-11-29T18:36:47.892Z,68.27
2022-11-29T18:39:17.729Z,68.34
2022-11-29T18:41:49.876Z,68.48
2022-11-29T18:44:19.824Z,68.38
2022-11-29T18:46:46.967Z,68.46
2022-11-29T18:49:16.931Z,68.72
2022-11-29T18:51:46.093Z,68.62
2022-11-29T18:54:14.971Z,68.79
2022-11-29T18:56:43.229Z,68.93
2022-11-29T18:59:17.031Z,68.63
2022-11-29T19:01:47.431Z,69.35
2022-11-29T19:04:18.677Z,69.64
2022-11-29T19:06:45.685Z,70.17
2022-11-29T19:09:21.086Z,70.12
2022-11-29T19:11:50.817Z,69.52
2022-11-29T19:14:18.619Z,69.40
2022-11-29T19:16:47.766Z,69.06
2022-11-29T19:19:14.288Z,69.29
2022-11-29T19:21:41.639Z,69.07
2022-11-29T19:24:14.549Z,68.78
2022-11-29T19:26:44.292Z,68.69
2022-11-29T19:29:11.550Z,68.91
2022-11-29T19:31:39.312Z,68.47
2022-11-29T19:34:06.355Z,68.15
2022-11-29T19:36:32.983Z,68.56
2022-11-29T19:39:01.545Z,68.99
2022-11-29T19:41:33.995Z,69.31
2022-11-29T19:44:04.347Z,69.05
2022-11-29T19:46:35.149Z,68.39
2022-11-29T19:49:04.260Z,68.19
2022-11-29T19:51:31.667Z,68.01
2022-11-29T19:54:02.641Z,67.76
2022-11-29T19:56:31.569Z,67.73
2022-11-29T19:59:01.260Z,67.81
2022-11-29T20:01:37.835Z,67.71
2022-11-29T20:04:07.469Z,67.72
2022-11-29T20:06:34.462Z,68.20
2022-11-29T20:09:01.820Z,68.59
2022-11-29T20:11:28.416Z,68.82
2022-11-29T20:14:01.200Z,68.79
2022-11-29T20:16:29.776Z,68.79
2022-11-29T20:18:58.079Z,68.51
2022-11-29T20:21:28.796Z,68.81
2022-11-29T20:24:03.915Z,68.86
2022-11-29T20:26:33.866Z,69.73
2022-11-29T20:29:02.062Z,70.59
2022-11-29T20:31:29.730Z,70.67
2022-11-29T20:33:59.864Z,70.29
2022-11-29T20:36:32.172Z,69.76
2022-11-29T20:39:29.380Z,69.50
2022-11-29T20:42:31.590Z,69.43
2022-11-29T20:45:07.694Z,70.22
2022-11-29T20:47:56.503Z,71.01
2022-11-29T20:50:30.435Z,71.21
2022-11-29T20:53:26.097Z,71.54
2022-11-29T20:55:52.584Z,71.10
2022-11-29T20:58:19.674Z,71.17
2022-11-29T21:00:46.794Z,70.81
2022-11-29T21:03:17.485Z,70.06
2022-11-29T21:05:45.522Z,69.71
2022-11-29T21:08:13.948Z,70.97
2022-11-29T21:10:40.521Z,71.35
2022-11-29T21:13:08.060Z,71.35
2022-11-29T21:15:35.001Z,71.10
2022-11-29T21:18:01.925Z,70.87
2022-11-29T21:20:28.610Z,70.42
2022-11-29T21:23:16.940Z,70.20
2022-11-29T21:25:54.163Z,69.42
2022-11-29T21:28:29.931Z,69.35
2022-11-29T21:30:56.814Z,69.48
2022-11-29T21:33:23.817Z,70.11
2022-11-29T21:35:57.753Z,70.51
2022-11-29T21:38:26.949Z,70.92
2022-11-29T21:40:53.389Z,70.82
2022-11-29T21:43:20.816Z,70.17
2022-11-29T21:45:49.283Z,70.25
2022-11-29T21:48:34.406Z,69.68
2022-11-29T21:51:06.666Z,69.67
2022-11-29T21:53:34.897Z,69.55
2022-11-29T21:56:06.191Z,69.13
2022-11-29T21:58:36.325Z,69.39
2022-11-29T22:01:08.356Z,70.20
2022-11-29T22:03:34.853Z,70.24
2022-11-29T22:06:07.357Z,70.15
2022-11-29T22:08:39.540Z,69.85
2022-11-29T22:11:12.852Z,69.82
2022-11-29T22:14:02.837Z,69.84
2022-11-29T22:16:30.289Z,69.79
2022-11-29T22:18:56.943Z,69.97
2022-11-29T22:21:23.448Z,69.94
2022-11-29T22:23:51.961Z,69.75
2022-11-29T22:26:18.432Z,70.38
2022-11-29T22:28:44.918Z,71.33
2022-11-29T22:31:12.707Z,71.47
2022-11-29T22:33:39.510Z,71.53
2022-11-29T22:36:12.464Z,70.71
2022-11-29T22:38:40.124Z,70.32
2022-11-29T22:41:10.657Z,69.98
2022-11-29T22:43:38.701Z,69.64
2022-11-29T22:46:20.443Z,69.47
2022-11-29T22:48:52.378Z,69.51
2022-11-29T22:51:26.120Z,69.22
2022-11-29T22:53:58.814Z,69.53
2022-11-29T22:56:29.474Z,69.45
2022-11-29T22:58:56.005Z,69.43
2022-11-29T23:01:25.971Z,69.49
2022-11-29T23:03:56.531Z,69.20
2022-11-29T23:06:45.997Z,69.27
2022-11-29T23:09:21.902Z,69.57
2022-11-29T23:11:53.879Z,70.06
2022-11-29T23:14:22.153Z,69.85
2022-11-29T23:16:49.267Z,69.35
2022-11-29T23:19:16.201Z,69.41
2022-11-29T23:21:45.356Z,69.09
2022-11-29T23:24:12.156Z,69.22
2022-11-29T23:26:42.820Z,69.15
2022-11-29T23:29:14.960Z,69.02
2022-11-29T23:31:42.232Z,69.07
2022-11-29T23:34:09.551Z,68.92
2022-11-29T23:36:36.049Z,69.10
2022-11-29T23:39:02.580Z,69.13
2022-11-29T23:41:29.057Z,69.46
2022-11-29T23:43:55.670Z,69.36
2022-11-29T23:46:24.347Z,69.12
2022-11-29T23:48:52.099Z,69.04
2022-11-29T23:51:19.975Z,68.78
2022-11-29T23:53:51.132Z,68.99
2022-11-29T23:56:18.512Z,68.60
2022-11-29T23:58:45.995Z,68.62
